createdAt,value
2017-07-05T00:00:28.041Z,55.08
2017-07-05T00:01:37.765Z,55.24
2017-07-05T00:02:48.138Z,55.36
2017-07-05T00:03:58.189Z,55.15
2017-07-05T00:05:08.541Z,55.08
2017-07-05T00:06:18.588Z,55.18
2017-07-05T00:07:28.949Z,55.15
2017-07-05T00:08:38.987Z,55.15
2017-07-05T00:09:49.352Z,55.34
2017-07-05T00:10:59.381Z,55.15
2017-07-05T00:12:09.761Z,55.05
2017-07-05T00:13:20.118Z,55.15
2017-07-05T00:14:30.472Z,55.15
2017-07-05T00:15:40.568Z,55.15
2017-07-05T00:16:50.288Z,55.24
2017-07-05T00:18:00.655Z,55.15
2017-07-05T00:19:11.024Z,55.44
2017-07-05T00:20:21.361Z,55.15
2017-07-05T00:21:31.440Z,55.15
2017-07-05T00:22:41.798Z,55.15
2017-07-05T00:23:51.517Z,55.34
2017-07-05T00:25:01.886Z,55.05
2017-07-05T00:26:11.938Z,55.31
2017-07-05T00:27:22.301Z,55.12
2017-07-05T00:28:31.373Z,55.12
2017-07-05T00:29:41.412Z,55.15
2017-07-05T00:30:51.790Z,55.12
2017-07-05T00:32:01.831Z,55.31
2017-07-05T00:33:12.195Z,55.22
2017-07-05T00:34:22.554Z,55.31
2017-07-05T00:35:32.893Z,55.02
2017-07-05T00:36:43.245Z,55.02
2017-07-05T00:37:53.294Z,55.02
2017-07-05T00:39:03.354Z,55.12
2017-07-05T00:40:13.704Z,55.02
2017-07-05T00:41:23.746Z,55.31
2017-07-05T00:42:33.459Z,55.02
2017-07-05T00:43:43.831Z,55.12
2017-07-05T00:44:54.006Z,55.22
2017-07-05T00:46:04.348Z,55.12
2017-07-05T00:47:14.702Z,55.12
2017-07-05T00:48:24.739Z,55.12
2017-07-05T00:49:34.773Z,55.02
2017-07-05T00:50:45.130Z,55.12
2017-07-05T00:51:55.483Z,55.02
2017-07-05T00:53:05.840Z,55.02
2017-07-05T00:54:16.171Z,55.12
2017-07-05T00:55:25.879Z,55.02
2017-07-05T00:56:35.969Z,55.12
2017-07-05T00:57:45.701Z,55.09
2017-07-05T00:58:56.052Z,55.19
2017-07-05T01:00:06.079Z,55.31
2017-07-05T01:01:16.435Z,55.31
2017-07-05T01:02:26.847Z,55.12
2017-07-05T01:03:37.199Z,55.02
2017-07-05T01:04:47.247Z,55.12
2017-07-05T01:05:57.602Z,55.31
2017-07-05T01:07:07.970Z,55.09
2017-07-05T01:08:17.733Z,55.09
2017-07-05T01:09:27.769Z,55.09
2017-07-05T01:10:37.806Z,54.71
2017-07-05T01:11:47.749Z,54.8
2017-07-05T01:12:58.178Z,54.71
2017-07-05T01:14:08.211Z,54.71
2017-07-05T01:15:18.282Z,54.9
2017-07-05T01:16:28.624Z,54.71
2017-07-05T01:17:38.343Z,54.71
2017-07-05T01:18:48.692Z,54.71
2017-07-05T01:19:59.049Z,54.71
2017-07-05T01:21:09.136Z,55.29
2017-07-05T01:22:19.488Z,54.8
2017-07-05T01:23:29.835Z,54.9
2017-07-05T01:24:40.172Z,54.8
2017-07-05T01:25:50.194Z,54.8
2017-07-05T01:27:00.239Z,55.09
2017-07-05T01:28:10.276Z,54.8
2017-07-05T01:29:20.293Z,54.9
2017-07-05T01:30:30.341Z,54.9
2017-07-05T01:31:40.058Z,54.8
2017-07-05T01:32:50.090Z,55.09
2017-07-05T01:34:00.435Z,55.09
2017-07-05T01:35:10.797Z,55.26
2017-07-05T01:36:20.824Z,54.9
2017-07-05T01:37:31.178Z,54.78
2017-07-05T01:38:41.264Z,54.9
2017-07-05T01:39:51.289Z,54.68
2017-07-05T01:41:01.649Z,54.78
2017-07-05T01:42:12.012Z,54.78
2017-07-05T01:43:22.044Z,55.16
2017-07-05T01:44:32.408Z,55.07
2017-07-05T01:45:42.439Z,54.68
2017-07-05T01:46:52.795Z,55.07
2017-07-05T01:48:03.133Z,55.07
2017-07-05T01:49:12.844Z,55.07
2017-07-05T01:50:23.192Z,55.16
2017-07-05T01:51:33.220Z,55.07
2017-07-05T01:52:43.262Z,55.26
2017-07-05T01:53:53.310Z,55.07
2017-07-05T01:55:03.341Z,54.87
2017-07-05T01:56:13.363Z,54.68
2017-07-05T01:57:23.395Z,54.87
2017-07-05T01:58:33.744Z,54.65
2017-07-05T01:59:43.454Z,54.65
2017-07-05T02:00:53.859Z,54.85
2017-07-05T02:02:03.592Z,54.75
2017-07-05T02:03:13.304Z,54.75
2017-07-05T02:04:23.402Z,55.23
2017-07-05T02:05:33.758Z,55.23
2017-07-05T02:06:44.090Z,55.23
2017-07-05T02:07:54.506Z,55.04
2017-07-05T02:09:04.853Z,55.04
2017-07-05T02:10:15.203Z,54.94
2017-07-05T02:11:25.262Z,54.94
2017-07-05T02:12:35.623Z,55.04
2017-07-05T02:13:46.069Z,54.94
2017-07-05T02:14:55.783Z,54.94
2017-07-05T02:16:06.141Z,55.23
2017-07-05T02:17:16.487Z,55.13
2017-07-05T02:18:26.520Z,54.94
2017-07-05T02:19:36.874Z,54.46
2017-07-05T02:20:47.231Z,55.23
2017-07-05T02:21:57.573Z,55.13
2017-07-05T02:23:07.922Z,55.04
2017-07-05T02:24:18.262Z,55.04
2017-07-05T02:25:28.618Z,55.04
2017-07-05T02:26:38.971Z,55.04
2017-07-05T02:27:48.996Z,54.94
2017-07-05T02:28:59.334Z,55.13
2017-07-05T02:30:09.369Z,54.94
2017-07-05T02:31:19.776Z,55.23
2017-07-05T02:32:29.805Z,55.01
2017-07-05T02:33:39.521Z,54.85
2017-07-05T02:34:49.561Z,55.11
2017-07-05T02:35:59.903Z,55.23
2017-07-05T02:37:10.255Z,55.01
2017-07-05T02:38:20.618Z,54.82
2017-07-05T02:39:30.973Z,55.04
2017-07-05T02:40:41.324Z,54.72
2017-07-05T02:41:50.753Z,54.63
2017-07-05T02:43:00.452Z,54.82
2017-07-05T02:44:10.796Z,54.72
2017-07-05T02:45:20.822Z,54.72
2017-07-05T02:46:30.844Z,54.63
2017-07-05T02:47:40.242Z,54.36
2017-07-05T02:48:50.609Z,54.34
2017-07-05T02:50:00.951Z,54.91
2017-07-05T02:51:11.296Z,54.82
2017-07-05T02:52:21.325Z,55.01
2017-07-05T02:53:31.726Z,55.11
2017-07-05T02:54:42.094Z,54.34
2017-07-05T02:55:52.463Z,55.01
2017-07-05T02:57:02.817Z,55.01
2017-07-05T02:58:12.841Z,55.11
2017-07-05T02:59:23.190Z,55.11
2017-07-05T03:00:33.538Z,54.82
2017-07-05T03:32:56.572Z,52.26
2017-07-05T03:34:06.921Z,52.93
2017-07-05T03:35:17.269Z,53.6
2017-07-05T03:36:27.610Z,54.08
2017-07-05T03:37:37.628Z,54.88
2017-07-05T03:38:47.984Z,54.88
2017-07-05T03:39:58.341Z,55.07
2017-07-05T03:41:08.674Z,55.07
2017-07-05T03:42:19.028Z,55.45
2017-07-05T03:43:29.057Z,55.38
2017-07-05T03:44:39.398Z,55.38
2017-07-05T03:45:49.438Z,55.38
2017-07-05T03:46:59.785Z,55.51
2017-07-05T03:48:09.806Z,55.22
2017-07-05T03:49:19.520Z,55.02
2017-07-05T03:50:29.917Z,54.96
2017-07-05T03:51:39.970Z,54.86
2017-07-05T03:52:50.001Z,54.86
2017-07-05T03:53:59.718Z,54.99
2017-07-05T03:55:09.450Z,54.79
2017-07-05T03:56:19.480Z,54.79
2017-07-05T03:57:29.891Z,55.01
2017-07-05T03:58:40.269Z,55.01
2017-07-05T03:59:50.626Z,55.2
2017-07-05T04:01:00.973Z,55.01
2017-07-05T04:02:10.999Z,54.91
2017-07-05T04:03:20.717Z,54.75
2017-07-05T04:04:31.067Z,55.04
2017-07-05T04:05:41.434Z,54.75
2017-07-05T04:06:51.784Z,54.36
2017-07-05T04:08:01.486Z,54.39
2017-07-05T04:09:11.884Z,54.2
2017-07-05T04:10:22.235Z,54.3
2017-07-05T04:11:32.275Z,54.39
2017-07-05T04:12:42.305Z,54.32
2017-07-05T04:13:52.651Z,54.22
2017-07-05T04:15:03.054Z,53.94
2017-07-05T04:16:13.380Z,54.42
2017-07-05T04:17:23.751Z,54.06
2017-07-05T04:18:34.101Z,54.13
2017-07-05T04:19:43.841Z,54.35
2017-07-05T04:20:53.600Z,54.06
2017-07-05T04:22:03.954Z,54.16
2017-07-05T04:23:14.298Z,53.87
2017-07-05T04:24:24.374Z,52.35
2017-07-05T04:25:34.399Z,50.04
2017-07-05T04:26:44.490Z,48.61
2017-07-05T04:27:54.841Z,48.52
2017-07-05T04:29:04.240Z,47.88
2017-07-05T04:30:14.602Z,47.66
2017-07-05T04:31:24.638Z,47.52
2017-07-05T04:32:34.666Z,47.46
2017-07-05T04:33:45.021Z,47.78
2017-07-05T04:34:55.382Z,47.83
2017-07-05T04:36:05.784Z,47.85
2017-07-05T04:37:15.837Z,48.09
2017-07-05T04:38:26.213Z,48.31
2017-07-05T04:39:36.309Z,48.43
2017-07-05T04:40:46.338Z,48.48
2017-07-05T04:41:56.692Z,48.58
2017-07-05T04:43:07.055Z,48.52
2017-07-05T04:44:17.461Z,48.52
2017-07-05T04:45:27.183Z,48.35
2017-07-05T04:46:37.531Z,48.47
2017-07-05T04:47:47.887Z,48.28
2017-07-05T04:48:57.927Z,48.38
2017-07-05T04:50:08.323Z,48.4
2017-07-05T04:51:18.679Z,48.6
2017-07-05T04:52:29.050Z,48.52
2017-07-05T04:53:39.407Z,48.52
2017-07-05T04:54:49.436Z,48.62
2017-07-05T04:55:59.769Z,48.52
2017-07-05T04:57:09.820Z,48.62
2017-07-05T04:58:19.850Z,48.65
2017-07-05T04:59:30.201Z,48.65
2017-07-05T05:00:39.978Z,48.65
2017-07-05T05:01:50.324Z,48.47
2017-07-05T05:03:00.022Z,48.27
2017-07-05T05:04:10.064Z,48.67
2017-07-05T05:05:19.789Z,48.59
2017-07-05T05:06:29.830Z,48.39
2017-07-05T05:07:39.926Z,48.69
2017-07-05T05:08:50.287Z,48.39
2017-07-05T05:10:00.325Z,48.59
2017-07-05T05:11:10.694Z,48.59
2017-07-05T05:12:20.735Z,48.71
2017-07-05T05:13:31.082Z,48.71
2017-07-05T05:14:41.150Z,48.82
2017-07-05T05:15:50.865Z,48.61
2017-07-05T05:17:00.936Z,48.71
2017-07-05T05:18:11.301Z,48.71
2017-07-05T05:19:21.371Z,48.22
2017-07-05T05:20:31.414Z,48.71
2017-07-05T05:21:41.762Z,48.52
2017-07-05T05:22:51.805Z,48.52
2017-07-05T05:24:02.165Z,48.42
2017-07-05T05:25:11.582Z,48.52
2017-07-05T05:26:21.951Z,48.61
2017-07-05T05:27:32.302Z,48.71
2017-07-05T05:28:42.656Z,49.11
2017-07-05T05:29:53.057Z,49.01
2017-07-05T05:31:03.095Z,49.01
2017-07-05T05:32:13.455Z,48.74
2017-07-05T05:33:23.807Z,49.21
2017-07-05T05:34:33.857Z,49.13
2017-07-05T05:35:44.217Z,49.11
2017-07-05T05:36:54.632Z,49.11
2017-07-05T05:38:04.661Z,49.21
2017-07-05T05:39:15.018Z,49.01
2017-07-05T05:40:25.364Z,48.82
2017-07-05T05:41:35.735Z,49.11
2017-07-05T05:42:45.448Z,48.89
2017-07-05T05:43:55.508Z,48.89
2017-07-05T05:45:05.877Z,48.99
2017-07-05T05:46:15.916Z,48.99
2017-07-05T05:47:26.268Z,49.08
2017-07-05T05:48:35.975Z,49.18
2017-07-05T05:49:46.337Z,48.99
2017-07-05T05:50:56.728Z,48.99
2017-07-05T05:52:06.449Z,48.99
2017-07-05T05:53:16.793Z,48.89
2017-07-05T05:54:26.827Z,49.08
2017-07-05T05:55:37.171Z,49.08
2017-07-05T05:56:47.206Z,49.08
2017-07-05T05:57:57.238Z,49.46
2017-07-05T05:59:07.582Z,49.35
2017-07-05T06:00:17.943Z,49.75
2017-07-05T06:01:27.986Z,49.73
2017-07-05T06:02:38.350Z,50.12
2017-07-05T06:03:48.713Z,50.29
2017-07-05T06:04:58.769Z,50.49
2017-07-05T06:06:08.813Z,50.21
2017-07-05T06:07:19.173Z,50.12
2017-07-05T06:08:29.525Z,50.09
2017-07-05T06:09:39.889Z,50.29
2017-07-05T06:10:49.668Z,50.29
2017-07-05T06:12:00.044Z,50.68
2017-07-05T06:13:10.079Z,50.59
2017-07-05T06:14:20.443Z,50.98
2017-07-05T06:15:30.189Z,51.17
2017-07-05T06:16:40.212Z,51.17
2017-07-05T06:17:50.574Z,50.98
2017-07-05T06:19:00.692Z,51.07
2017-07-05T06:20:10.731Z,51.17
2017-07-05T06:21:20.781Z,51.17
2017-07-05T06:22:31.185Z,51.27
2017-07-05T06:23:40.908Z,51.37
2017-07-05T06:24:50.305Z,51.37
2017-07-05T06:26:00.017Z,51.45
2017-07-05T06:27:09.740Z,51.32
2017-07-05T06:28:19.837Z,51.72
2017-07-05T06:29:30.221Z,51.49
2017-07-05T06:30:40.570Z,52.37
2017-07-05T06:31:50.935Z,51.89
2017-07-05T06:33:00.972Z,52.28
2017-07-05T06:34:11.393Z,52.25
2017-07-05T06:35:21.750Z,52.06
2017-07-05T06:36:32.118Z,52.06
2017-07-05T06:37:41.515Z,52.06
2017-07-05T06:38:51.866Z,51.76
2017-07-05T06:40:01.914Z,52.72
2017-07-05T06:41:11.959Z,52.4
2017-07-05T06:42:22.003Z,52.3
2017-07-05T06:43:32.379Z,52.37
2017-07-05T06:44:42.429Z,52.86
2017-07-05T06:45:52.793Z,52.05
2017-07-05T06:47:02.820Z,52.27
2017-07-05T06:48:12.870Z,52.34
2017-07-05T06:49:23.249Z,52.44
2017-07-05T06:50:33.301Z,52.83
2017-07-05T06:51:43.656Z,52.73
2017-07-05T06:52:54.016Z,52.42
2017-07-05T06:54:04.378Z,52.71
2017-07-05T06:55:14.679Z,52.81
2017-07-05T06:56:25.123Z,52.71
2017-07-05T06:57:35.484Z,53.56
2017-07-05T06:58:45.859Z,53.27
2017-07-05T06:59:56.274Z,53.27
2017-07-05T07:01:06.001Z,53.37
2017-07-05T07:02:16.367Z,53.37
2017-07-05T07:03:26.724Z,52.98
2017-07-05T07:04:37.077Z,52.69
2017-07-05T07:05:47.662Z,53.17
2017-07-05T07:06:58.030Z,52.86
2017-07-05T07:08:08.379Z,52.95
2017-07-05T07:09:18.738Z,53.44
2017-07-05T07:10:29.149Z,53.13
2017-07-05T07:11:39.195Z,53.32
2017-07-05T07:12:48.922Z,53.71
2017-07-05T07:13:59.015Z,53.81
2017-07-05T07:15:09.053Z,54
2017-07-05T07:16:18.789Z,54.07
2017-07-05T07:17:29.155Z,53.97
2017-07-05T07:18:39.510Z,53.58
2017-07-05T07:19:49.588Z,53.66
2017-07-05T07:20:59.956Z,53.68
2017-07-05T07:22:10.331Z,53.85
2017-07-05T07:23:20.359Z,53.95
2017-07-05T07:24:30.725Z,53.85
2017-07-05T07:25:40.813Z,54.05
2017-07-05T07:26:50.879Z,53.66
2017-07-05T07:28:00.904Z,53.66
2017-07-05T07:29:10.930Z,53.66
2017-07-05T07:30:20.997Z,53.95
2017-07-05T07:31:31.089Z,53.95
2017-07-05T07:32:41.458Z,53.95
2017-07-05T07:33:51.809Z,54.24
2017-07-05T07:35:01.865Z,54.05
2017-07-05T07:36:12.234Z,54.14
2017-07-05T07:37:22.265Z,54.14
2017-07-05T07:38:32.304Z,54.14
2017-07-05T07:39:42.663Z,54.14
2017-07-05T07:40:53.036Z,53.95
2017-07-05T07:42:03.402Z,54.05
2017-07-05T07:43:13.507Z,53.46
2017-07-05T07:44:23.559Z,53.27
2017-07-05T07:45:33.923Z,53.27
2017-07-05T07:46:44.288Z,53.46
2017-07-05T07:47:54.662Z,53.27
2017-07-05T07:49:05.063Z,53.56
2017-07-05T07:50:15.126Z,54.24
2017-07-05T07:51:25.167Z,54.05
2017-07-05T07:52:34.887Z,54.05
2017-07-05T07:53:44.939Z,53.95
2017-07-05T07:54:55.311Z,53.68
2017-07-05T07:56:05.363Z,53.19
2017-07-05T07:57:15.727Z,53.49
2017-07-05T07:58:26.092Z,53.22
2017-07-05T07:59:36.437Z,53.03
2017-07-05T08:00:46.839Z,53.42
2017-07-05T08:01:56.887Z,53.42
2017-07-05T08:03:06.927Z,53.52
2017-07-05T08:04:17.306Z,53.22
2017-07-05T08:05:27.652Z,53.34
2017-07-05T08:06:38.029Z,53.54
2017-07-05T08:07:48.076Z,53.54
2017-07-05T08:08:58.422Z,53.05
2017-07-05T08:10:08.796Z,53.54
2017-07-05T08:11:18.838Z,53.54
2017-07-05T08:12:28.922Z,52.98
2017-07-05T08:13:38.970Z,53.47
2017-07-05T08:14:49.030Z,53.37
2017-07-05T08:15:59.385Z,53.66
2017-07-05T08:17:09.742Z,53.27
2017-07-05T08:18:20.136Z,53.47
2017-07-05T08:19:30.562Z,53.37
2017-07-05T08:20:40.622Z,53.37
2017-07-05T08:21:50.971Z,53.47
2017-07-05T08:23:01.330Z,53.37
2017-07-05T08:24:11.739Z,53.37
2017-07-05T08:25:21.771Z,53.3
2017-07-05T08:26:32.173Z,53.3
2017-07-05T08:27:42.540Z,53.2
2017-07-05T08:28:52.902Z,53.39
2017-07-05T08:30:03.326Z,53.62
2017-07-05T08:31:13.695Z,53.49
2017-07-05T08:32:24.048Z,53.52
2017-07-05T08:33:33.783Z,53.13
2017-07-05T08:34:43.896Z,53.62
2017-07-05T08:35:54.296Z,53.33
2017-07-05T08:37:04.665Z,53.52
2017-07-05T08:38:15.041Z,53.33
2017-07-05T08:39:25.084Z,53.62
2017-07-05T08:40:35.450Z,53.33
2017-07-05T08:41:45.866Z,53.72
2017-07-05T08:42:56.239Z,53.42
2017-07-05T08:44:06.286Z,53.42
2017-07-05T08:45:16.339Z,53.25
2017-07-05T08:46:26.058Z,53.64
2017-07-05T08:47:35.835Z,53.74
2017-07-05T08:48:46.206Z,53.45
2017-07-05T08:49:56.256Z,53.16
2017-07-05T08:51:06.602Z,53.45
2017-07-05T08:52:16.971Z,53.55
2017-07-05T08:53:27.378Z,53.35
2017-07-05T08:54:37.727Z,53.25
2017-07-05T08:55:48.092Z,53.64
2017-07-05T08:56:57.831Z,53.38
2017-07-05T08:58:08.212Z,53.47
2017-07-05T08:59:18.618Z,53.38
2017-07-05T09:00:28.970Z,53.08
2017-07-05T09:01:39.323Z,53.18
2017-07-05T09:02:49.378Z,53.28
2017-07-05T09:03:59.727Z,53.11
2017-07-05T09:05:10.097Z,53.28
2017-07-05T09:06:20.473Z,53.11
2017-07-05T09:07:30.511Z,53.8
2017-07-05T09:08:40.562Z,53.5
2017-07-05T09:09:50.920Z,53.4
2017-07-05T09:11:00.964Z,53.4
2017-07-05T09:12:11.057Z,53.4
2017-07-05T09:13:21.103Z,53.38
2017-07-05T09:14:31.481Z,53.47
2017-07-05T09:15:41.910Z,53.57
2017-07-05T09:16:51.994Z,53.38
2017-07-05T09:18:02.040Z,53.57
2017-07-05T09:19:12.389Z,53.3
2017-07-05T09:20:22.410Z,53.11
2017-07-05T09:21:32.787Z,53.3
2017-07-05T09:22:42.843Z,53.3
2017-07-05T09:23:52.559Z,53.13
2017-07-05T09:25:02.603Z,53.33
2017-07-05T09:26:12.967Z,53.33
2017-07-05T09:27:23.357Z,53.03
2017-07-05T09:28:33.505Z,53.23
2017-07-05T09:29:43.543Z,53.13
2017-07-05T09:30:53.586Z,53.13
2017-07-05T09:32:03.630Z,53.13
2017-07-05T09:33:13.987Z,52.96
2017-07-05T09:34:24.424Z,53.43
2017-07-05T09:35:34.783Z,52.76
2017-07-05T09:36:44.830Z,53.72
2017-07-05T09:37:54.570Z,53.33
2017-07-05T09:39:04.619Z,53.33
2017-07-05T09:40:15.045Z,53.33
2017-07-05T09:41:25.072Z,53.13
2017-07-05T09:42:35.113Z,53.33
2017-07-05T09:43:45.458Z,53.45
2017-07-05T09:44:55.492Z,53.45
2017-07-05T09:46:05.870Z,53.55
2017-07-05T09:47:16.241Z,53.48
2017-07-05T09:48:26.272Z,53.58
2017-07-05T09:49:36.647Z,53.67
2017-07-05T09:50:46.999Z,53.67
2017-07-05T09:51:57.402Z,53.67
2017-07-05T09:53:07.765Z,53.28
2017-07-05T09:54:17.815Z,53.48
2017-07-05T09:55:28.182Z,52.89
2017-07-05T09:56:38.533Z,53.38
2017-07-05T09:57:48.945Z,53.7
2017-07-05T09:58:58.987Z,53.5
2017-07-05T10:00:08.733Z,53.5
2017-07-05T10:01:19.092Z,53.6
2017-07-05T10:02:29.443Z,53.5
2017-07-05T10:03:39.864Z,53.41
2017-07-05T10:04:50.222Z,53.83
2017-07-05T10:06:00.594Z,53.6
2017-07-05T10:07:10.674Z,53.63
2017-07-05T10:08:20.398Z,53.44
2017-07-05T10:09:30.508Z,53.44
2017-07-05T10:10:40.547Z,53.53
2017-07-05T10:11:50.924Z,53.53
2017-07-05T10:13:00.951Z,53.44
2017-07-05T10:14:11.337Z,53.53
2017-07-05T10:15:21.709Z,53.33
2017-07-05T10:16:32.076Z,53.53
2017-07-05T10:17:41.477Z,53.56
2017-07-05T10:18:51.519Z,53.66
2017-07-05T10:20:01.230Z,53.46
2017-07-05T10:21:10.682Z,53.36
2017-07-05T10:22:21.033Z,53.66
2017-07-05T10:23:31.381Z,53.39
2017-07-05T10:24:41.658Z,52.99
2017-07-05T10:25:52.053Z,53.39
2017-07-05T10:27:02.417Z,53.39
2017-07-05T10:28:12.784Z,53.68
2017-07-05T10:29:22.822Z,53.68
2017-07-05T10:30:32.865Z,53.58
2017-07-05T10:31:42.924Z,53.39
2017-07-05T10:32:53.340Z,52.99
2017-07-05T10:34:03.687Z,53.09
2017-07-05T10:35:13.737Z,52.8
2017-07-05T10:36:24.109Z,52.89
2017-07-05T10:37:34.492Z,52.82
2017-07-05T10:38:44.597Z,52.8
2017-07-05T10:39:54.959Z,53.22
2017-07-05T10:41:04.678Z,53.41
2017-07-05T10:42:14.733Z,53.81
2017-07-05T10:43:25.115Z,53.7
2017-07-05T10:44:35.202Z,53.91
2017-07-05T10:45:45.569Z,52.92
2017-07-05T10:46:55.615Z,52.82
2017-07-05T10:48:05.985Z,53.02
2017-07-05T10:49:16.347Z,53.22
2017-07-05T10:50:26.721Z,53.22
2017-07-05T10:51:36.769Z,52.92
2017-07-05T10:52:47.125Z,53.22
2017-07-05T10:53:57.473Z,52.82
2017-07-05T10:55:07.829Z,52.85
2017-07-05T10:56:18.244Z,52.85
2017-07-05T10:57:28.596Z,52.75
2017-07-05T10:58:38.660Z,53.24
2017-07-05T10:59:48.721Z,52.95
2017-07-05T11:00:59.080Z,52.95
2017-07-05T11:02:09.176Z,52.95
2017-07-05T11:03:18.897Z,53.24
2017-07-05T11:04:28.929Z,52.87
2017-07-05T11:05:39.289Z,52.97
2017-07-05T11:06:49.650Z,52.97
2017-07-05T11:07:59.701Z,53.07
2017-07-05T11:09:10.081Z,53.07
2017-07-05T11:10:20.537Z,53.17
2017-07-05T11:11:30.901Z,52.87
2017-07-05T11:12:40.950Z,52.9
2017-07-05T11:13:50.986Z,53.19
2017-07-05T11:15:00.708Z,53
2017-07-05T11:16:11.216Z,52.9
2017-07-05T11:17:21.591Z,53
2017-07-05T11:18:31.958Z,53
2017-07-05T11:19:42.345Z,53.09
2017-07-05T11:20:52.717Z,52.83
2017-07-05T11:22:03.143Z,53.02
2017-07-05T11:23:13.551Z,52.73
2017-07-05T11:24:23.898Z,52.83
2017-07-05T11:25:33.929Z,52.73
2017-07-05T11:26:44.297Z,52.75
2017-07-05T11:27:54.048Z,52.85
2017-07-05T11:29:04.095Z,52.56
2017-07-05T11:30:14.133Z,53.25
2017-07-05T11:31:24.508Z,52.85
2017-07-05T11:32:34.556Z,53.05
2017-07-05T11:33:44.329Z,53.13
2017-07-05T11:34:54.377Z,52.75
2017-07-05T11:36:04.756Z,52.85
2017-07-05T11:37:14.828Z,52.58
2017-07-05T11:38:24.247Z,52.68
2017-07-05T11:39:34.374Z,52.78
2017-07-05T11:40:44.125Z,52.58
2017-07-05T11:41:54.209Z,52.87
2017-07-05T11:43:03.947Z,52.78
2017-07-05T11:44:13.993Z,52.78
2017-07-05T11:45:23.790Z,52.61
2017-07-05T11:46:33.831Z,52.91
2017-07-05T11:47:44.198Z,53.54
2017-07-05T11:48:54.555Z,53.44
2017-07-05T11:50:04.937Z,53.94
2017-07-05T11:51:14.409Z,53.84
2017-07-05T11:52:24.838Z,53.81
2017-07-05T11:53:35.205Z,53.69
2017-07-05T11:54:45.574Z,53.22
2017-07-05T11:55:55.941Z,52.95
2017-07-05T11:57:06.347Z,52.68
2017-07-05T11:58:16.394Z,52.78
2017-07-05T11:59:26.476Z,52.95
2017-07-05T12:00:36.534Z,53.44
2017-07-05T12:01:46.916Z,53.42
2017-07-05T12:02:57.021Z,53.78
2017-07-05T12:04:07.376Z,53.05
2017-07-05T12:05:17.437Z,52.87
2017-07-05T12:06:27.796Z,52.95
2017-07-05T12:07:37.843Z,52.75
2017-07-05T12:08:48.283Z,52.87
2017-07-05T12:09:58.655Z,53.84
2017-07-05T12:11:09.033Z,52.95
2017-07-05T12:12:19.082Z,52.58
2017-07-05T12:13:29.523Z,52.7
2017-07-05T12:14:39.614Z,52.53
2017-07-05T12:15:49.331Z,52.53
2017-07-05T12:16:59.044Z,52.76
2017-07-05T12:18:09.078Z,52.46
2017-07-05T12:19:19.473Z,52.66
2017-07-05T12:20:29.631Z,52.46
2017-07-05T12:21:40.013Z,52.73
2017-07-05T12:22:50.381Z,52.93
2017-07-05T12:24:00.729Z,53.37
2017-07-05T12:25:11.099Z,53.77
2017-07-05T12:26:21.211Z,53.84
2017-07-05T12:27:31.567Z,53.84
2017-07-05T12:28:41.626Z,54.21
2017-07-05T12:29:52.016Z,53.52
2017-07-05T12:31:02.383Z,53.71
2017-07-05T12:32:12.745Z,53.84
2017-07-05T12:33:23.258Z,54.03
2017-07-05T12:34:33.007Z,53.94
2017-07-05T12:35:43.371Z,53.84
2017-07-05T12:36:53.415Z,53.15
2017-07-05T12:38:03.787Z,52.95
2017-07-05T12:39:13.885Z,53.15
2017-07-05T12:40:23.923Z,53.25
2017-07-05T12:41:33.654Z,53.54
2017-07-05T12:42:44.028Z,54.38
2017-07-05T12:43:54.397Z,54.74
2017-07-05T12:45:04.804Z,53.86
2017-07-05T12:46:14.847Z,53.3
2017-07-05T12:47:24.919Z,53.71
2017-07-05T12:48:34.666Z,52.83
2017-07-05T12:49:45.051Z,52.85
2017-07-05T12:50:55.454Z,53.15
2017-07-05T12:52:05.830Z,53.25
2017-07-05T12:53:15.882Z,52.78
2017-07-05T12:54:25.946Z,52.78
2017-07-05T12:55:36.004Z,53.27
2017-07-05T12:56:46.121Z,53.17
2017-07-05T12:57:55.846Z,52.8
2017-07-05T12:59:06.205Z,53.3
2017-07-05T13:00:16.593Z,53.2
2017-07-05T13:01:26.674Z,52.91
2017-07-05T13:02:37.107Z,53.2
2017-07-05T13:03:47.175Z,53.2
2017-07-05T13:04:57.227Z,53.1
2017-07-05T13:06:07.618Z,53
2017-07-05T13:07:17.669Z,53.3
2017-07-05T13:08:27.467Z,53.1
2017-07-05T13:09:37.528Z,53.13
2017-07-05T13:10:47.250Z,52.83
2017-07-05T13:11:57.330Z,52.86
2017-07-05T13:13:07.703Z,52.86
2017-07-05T13:14:18.120Z,52.86
2017-07-05T13:15:28.497Z,52.86
2017-07-05T13:16:38.569Z,53.25
2017-07-05T13:17:48.930Z,53.15
2017-07-05T13:18:59.316Z,52.86
2017-07-05T13:20:09.729Z,53.25
2017-07-05T13:21:19.142Z,52.95
2017-07-05T13:22:29.566Z,53.15
2017-07-05T13:23:39.630Z,53.25
2017-07-05T13:24:49.678Z,53.18
2017-07-05T13:26:00.099Z,53.05
2017-07-05T13:27:10.140Z,53.55
2017-07-05T13:28:20.209Z,53.25
2017-07-05T13:29:30.247Z,53.35
2017-07-05T13:30:40.625Z,52.95
2017-07-05T13:31:50.445Z,53.05
2017-07-05T13:33:00.805Z,53.05
2017-07-05T13:34:10.855Z,53.05
2017-07-05T13:35:20.909Z,53.05
2017-07-05T13:36:30.999Z,53.15
2017-07-05T13:37:41.476Z,53.05
2017-07-05T13:38:51.846Z,53.18
2017-07-05T13:40:02.229Z,53.15
2017-07-05T13:41:12.279Z,53.15
2017-07-05T13:42:22.344Z,53.15
2017-07-05T13:43:32.714Z,53.15
2017-07-05T13:44:43.064Z,53.38
2017-07-05T13:45:53.426Z,53.18
2017-07-05T13:47:03.790Z,53.28
2017-07-05T13:48:13.517Z,53.15
2017-07-05T13:49:23.923Z,53.15
2017-07-05T13:50:34.361Z,53.05
2017-07-05T13:51:44.725Z,53.05
2017-07-05T13:52:54.778Z,53.05
2017-07-05T13:54:05.141Z,53.25
2017-07-05T13:55:15.511Z,53.25
2017-07-05T13:56:25.579Z,53.35
2017-07-05T13:57:35.944Z,53.38
2017-07-05T13:58:46.328Z,53.18
2017-07-05T13:59:56.692Z,53.28
2017-07-05T14:01:07.116Z,53.15
2017-07-05T14:02:17.517Z,53.15
2017-07-05T14:03:27.878Z,53.15
2017-07-05T14:04:37.939Z,53.15
2017-07-05T14:05:47.987Z,53.15
2017-07-05T14:06:58.558Z,53.18
2017-07-05T14:08:08.936Z,53.08
2017-07-05T14:09:19.297Z,53.25
2017-07-05T14:10:29.023Z,53.18
2017-07-05T14:11:39.088Z,53.38
2017-07-05T14:12:49.147Z,53.25
2017-07-05T14:13:59.220Z,53.94
2017-07-05T14:15:09.587Z,54.04
2017-07-05T14:16:19.647Z,53.62
2017-07-05T14:17:29.701Z,53.62
2017-07-05T14:18:39.821Z,53.72
2017-07-05T14:19:49.883Z,53.72
2017-07-05T14:20:59.952Z,53.81
2017-07-05T14:22:10.317Z,53.81
2017-07-05T14:23:20.674Z,53.72
2017-07-05T14:24:30.772Z,53.81
2017-07-05T14:25:40.817Z,53.62
2017-07-05T14:26:51.179Z,53.92
2017-07-05T14:28:01.543Z,54.02
2017-07-05T14:29:11.593Z,54.11
2017-07-05T14:30:21.690Z,53.81
2017-07-05T14:31:31.738Z,54.02
2017-07-05T14:32:41.777Z,53.81
2017-07-05T14:33:52.142Z,53.92
2017-07-05T14:35:02.516Z,53.59
2017-07-05T14:36:12.913Z,53.5
2017-07-05T14:37:23.275Z,53.39
2017-07-05T14:38:33.340Z,53
2017-07-05T14:39:43.407Z,53
2017-07-05T14:40:53.762Z,53.39
2017-07-05T14:42:04.215Z,53.77
2017-07-05T14:43:14.587Z,53.47
2017-07-05T14:44:24.663Z,53.77
2017-07-05T14:45:34.711Z,53.47
2017-07-05T14:46:44.755Z,53.57
2017-07-05T14:47:54.807Z,53.67
2017-07-05T14:49:05.172Z,53.37
2017-07-05T14:50:15.554Z,53.37
2017-07-05T14:51:25.301Z,53.67
2017-07-05T14:52:35.369Z,53.27
2017-07-05T14:53:45.738Z,52.98
2017-07-05T14:54:55.784Z,53.34
2017-07-05T14:56:05.824Z,53.64
2017-07-05T14:57:16.202Z,53.44
2017-07-05T14:58:25.961Z,53.37
2017-07-05T14:59:36.003Z,53.37
2017-07-05T15:00:46.372Z,53.44
2017-07-05T15:01:56.408Z,53.64
2017-07-05T15:03:06.783Z,53.84
2017-07-05T15:04:16.551Z,53.25
2017-07-05T15:05:26.922Z,53.25
2017-07-05T15:06:37.294Z,53.25
2017-07-05T15:07:47.406Z,53.34
2017-07-05T15:08:57.774Z,53.44
2017-07-05T15:10:08.265Z,53.15
2017-07-05T15:11:18.320Z,53.84
2017-07-05T15:12:28.674Z,53.25
2017-07-05T15:13:39.049Z,53.74
2017-07-05T15:14:48.791Z,53.74
2017-07-05T15:15:58.896Z,53.34
2017-07-05T15:17:09.276Z,53.34
2017-07-05T15:18:19.653Z,53.64
2017-07-05T15:19:29.721Z,53.34
2017-07-05T15:20:39.851Z,53.44
2017-07-05T15:21:50.279Z,53.64
2017-07-05T15:23:00.624Z,53.44
2017-07-05T15:24:10.666Z,54.03
2017-07-05T15:25:20.727Z,53.84
2017-07-05T15:26:30.814Z,53.91
2017-07-05T15:27:41.175Z,53.44
2017-07-05T15:28:51.213Z,53.34
2017-07-05T15:30:01.262Z,53.74
2017-07-05T15:31:11.716Z,53.34
2017-07-05T15:32:21.750Z,53.84
2017-07-05T15:33:32.169Z,53.54
2017-07-05T15:34:42.527Z,53.64
2017-07-05T15:35:52.900Z,53.42
2017-07-05T15:37:02.954Z,53.42
2017-07-05T15:38:13.329Z,53.71